sensor_id;sensor_type;location;lat;lon;timestamp;P1;durP1;ratioP1;P2;durP2;ratioP2
14381;SDS011;7275;50.328;8.720;2023-07-31T00:00:54;2.87;;;1.53;;
14381;SDS011;7275;50.328;8.720;2023-07-31T00:03:22;4.50;;;2.10;;
14381;SDS011;7275;50.328;8.720;2023-07-31T00:05:51;3.30;;;1.60;;
14381;SDS011;7275;50.328;8.720;2023-07-31T00:08:18;2.83;;;1.50;;
14381;SDS011;7275;50.328;8.720;2023-07-31T00:10:46;3.53;;;1.77;;
14381;SDS011;7275;50.328;8.720;2023-07-31T00:13:13;3.73;;;1.70;;
14381;SDS011;7275;50.328;8.720;2023-07-31T00:15:41;3.27;;;1.70;;
14381;SDS011;7275;50.328;8.720;2023-07-31T00:18:09;3.03;;;1.60;;
14381;SDS011;7275;50.328;8.720;2023-07-31T00:20:36;3.57;;;1.83;;
14381;SDS011;7275;50.328;8.720;2023-07-31T00:23:05;3.83;;;1.63;;
14381;SDS011;7275;50.328;8.720;2023-07-31T00:25:33;3.63;;;1.57;;
14381;SDS011;7275;50.328;8.720;2023-07-31T00:28:01;2.43;;;1.57;;
14381;SDS011;7275;50.328;8.720;2023-07-31T00:30:28;4.17;;;1.70;;
14381;SDS011;7275;50.328;8.720;2023-07-31T00:32:56;4.30;;;1.63;;
14381;SDS011;7275;50.328;8.720;2023-07-31T00:35:24;3.67;;;1.90;;
14381;SDS011;7275;50.328;8.720;2023-07-31T00:37:51;6.87;;;1.80;;
14381;SDS011;7275;50.328;8.720;2023-07-31T00:40:20;3.00;;;1.77;;
14381;SDS011;7275;50.328;8.720;2023-07-31T00:42:48;3.47;;;1.80;;
14381;SDS011;7275;50.328;8.720;2023-07-31T00:45:15;2.87;;;1.53;;
14381;SDS011;7275;50.328;8.720;2023-07-31T00:47:43;3.13;;;1.80;;
14381;SDS011;7275;50.328;8.720;2023-07-31T00:50:11;4.13;;;1.83;;
14381;SDS011;7275;50.328;8.720;2023-07-31T00:52:38;2.57;;;1.47;;
14381;SDS011;7275;50.328;8.720;2023-07-31T00:55:06;2.83;;;1.63;;
14381;SDS011;7275;50.328;8.720;2023-07-31T00:57:36;3.57;;;1.53;;
14381;SDS011;7275;50.328;8.720;2023-07-31T01:00:05;3.43;;;1.73;;
14381;SDS011;7275;50.328;8.720;2023-07-31T01:02:34;3.63;;;1.60;;
14381;SDS011;7275;50.328;8.720;2023-07-31T01:05:03;2.97;;;1.70;;
14381;SDS011;7275;50.328;8.720;2023-07-31T01:07:34;2.50;;;1.63;;
14381;SDS011;7275;50.328;8.720;2023-07-31T01:10:08;2.73;;;1.80;;
14381;SDS011;7275;50.328;8.720;2023-07-31T01:12:44;4.47;;;1.80;;
14381;SDS011;7275;50.328;8.720;2023-07-31T01:15:12;4.83;;;1.80;;
14381;SDS011;7275;50.328;8.720;2023-07-31T01:17:41;4.43;;;1.80;;
14381;SDS011;7275;50.328;8.720;2023-07-31T01:20:10;4.90;;;1.90;;
14381;SDS011;7275;50.328;8.720;2023-07-31T01:25:54;6.77;;;1.63;;
14381;SDS011;7275;50.328;8.720;2023-07-31T01:28:28;2.97;;;1.70;;
14381;SDS011;7275;50.328;8.720;2023-07-31T01:31:03;3.83;;;1.90;;
14381;SDS011;7275;50.328;8.720;2023-07-31T01:33:34;2.87;;;1.67;;
14381;SDS011;7275;50.328;8.720;2023-07-31T01:36:04;4.83;;;2.10;;
14381;SDS011;7275;50.328;8.720;2023-07-31T01:38:32;3.57;;;1.90;;
14381;SDS011;7275;50.328;8.720;2023-07-31T01:41:01;3.43;;;1.70;;
14381;SDS011;7275;50.328;8.720;2023-07-31T01:43:28;3.23;;;1.80;;
14381;SDS011;7275;50.328;8.720;2023-07-31T01:45:56;4.13;;;1.60;;
14381;SDS011;7275;50.328;8.720;2023-07-31T01:48:24;3.80;;;1.83;;
14381;SDS011;7275;50.328;8.720;2023-07-31T01:50:51;5.20;;;1.90;;
14381;SDS011;7275;50.328;8.720;2023-07-31T01:53:19;4.07;;;1.80;;
14381;SDS011;7275;50.328;8.720;2023-07-31T01:55:47;3.13;;;1.60;;
14381;SDS011;7275;50.328;8.720;2023-07-31T01:58:16;4.20;;;1.90;;
14381;SDS011;7275;50.328;8.720;2023-07-31T02:00:43;3.40;;;1.97;;
14381;SDS011;7275;50.328;8.720;2023-07-31T02:03:12;3.20;;;1.90;;
14381;SDS011;7275;50.328;8.720;2023-07-31T02:05:43;2.90;;;1.60;;
14381;SDS011;7275;50.328;8.720;2023-07-31T02:08:11;4.13;;;2.03;;
14381;SDS011;7275;50.328;8.720;2023-07-31T02:10:39;5.17;;;2.00;;
14381;SDS011;7275;50.328;8.720;2023-07-31T02:13:07;3.43;;;1.70;;
14381;SDS011;7275;50.328;8.720;2023-07-31T02:15:36;5.13;;;1.90;;
14381;SDS011;7275;50.328;8.720;2023-07-31T02:18:04;2.97;;;1.77;;
14381;SDS011;7275;50.328;8.720;2023-07-31T02:20:33;3.07;;;1.70;;
14381;SDS011;7275;50.328;8.720;2023-07-31T02:23:01;3.00;;;1.70;;
14381;SDS011;7275;50.328;8.720;2023-07-31T02:25:29;3.27;;;1.70;;
14381;SDS011;7275;50.328;8.720;2023-07-31T02:27:56;6.40;;;1.70;;
14381;SDS011;7275;50.328;8.720;2023-07-31T02:30:24;4.43;;;1.77;;
14381;SDS011;7275;50.328;8.720;2023-07-31T02:32:53;4.40;;;1.90;;
14381;SDS011;7275;50.328;8.720;2023-07-31T02:35:20;4.60;;;1.97;;
14381;SDS011;7275;50.328;8.720;2023-07-31T02:37:48;4.40;;;1.90;;
14381;SDS011;7275;50.328;8.720;2023-07-31T02:40:16;3.63;;;1.90;;
14381;SDS011;7275;50.328;8.720;2023-07-31T02:42:44;3.80;;;1.90;;
14381;SDS011;7275;50.328;8.720;2023-07-31T02:45:11;4.77;;;1.90;;
14381;SDS011;7275;50.328;8.720;2023-07-31T02:47:39;4.63;;;1.97;;
14381;SDS011;7275;50.328;8.720;2023-07-31T02:50:08;3.03;;;1.80;;
14381;SDS011;7275;50.328;8.720;2023-07-31T02:52:36;4.90;;;2.40;;
14381;SDS011;7275;50.328;8.720;2023-07-31T02:55:04;4.40;;;2.00;;
14381;SDS011;7275;50.328;8.720;2023-07-31T02:57:33;3.70;;;2.00;;
14381;SDS011;7275;50.328;8.720;2023-07-31T03:00:00;4.17;;;1.83;;
14381;SDS011;7275;50.328;8.720;2023-07-31T03:02:31;3.27;;;1.80;;
14381;SDS011;7275;50.328;8.720;2023-07-31T03:04:59;3.57;;;1.90;;
14381;SDS011;7275;50.328;8.720;2023-07-31T03:07:28;3.87;;;2.00;;
14381;SDS011;7275;50.328;8.720;2023-07-31T03:09:56;3.20;;;1.73;;
14381;SDS011;7275;50.328;8.720;2023-07-31T03:12:24;4.03;;;2.10;;
14381;SDS011;7275;50.328;8.720;2023-07-31T03:14:52;4.53;;;2.13;;
14381;SDS011;7275;50.328;8.720;2023-07-31T03:17:19;4.90;;;2.20;;
14381;SDS011;7275;50.328;8.720;2023-07-31T03:19:47;5.43;;;2.30;;
14381;SDS011;7275;50.328;8.720;2023-07-31T03:22:15;5.77;;;2.20;;
14381;SDS011;7275;50.328;8.720;2023-07-31T03:24:44;2.40;;;2.00;;
14381;SDS011;7275;50.328;8.720;2023-07-31T03:27:11;3.40;;;1.90;;
14381;SDS011;7275;50.328;8.720;2023-07-31T03:29:39;3.47;;;2.20;;
14381;SDS011;7275;50.328;8.720;2023-07-31T03:32:07;2.60;;;1.87;;
14381;SDS011;7275;50.328;8.720;2023-07-31T03:34:34;4.83;;;2.17;;
14381;SDS011;7275;50.328;8.720;2023-07-31T03:37:02;4.47;;;2.23;;
14381;SDS011;7275;50.328;8.720;2023-07-31T03:39:31;3.67;;;2.20;;
14381;SDS011;7275;50.328;8.720;2023-07-31T03:42:00;4.20;;;2.20;;
14381;SDS011;7275;50.328;8.720;2023-07-31T03:44:27;5.70;;;2.20;;
14381;SDS011;7275;50.328;8.720;2023-07-31T03:46:55;3.10;;;1.90;;
14381;SDS011;7275;50.328;8.720;2023-07-31T03:49:23;4.70;;;2.00;;
14381;SDS011;7275;50.328;8.720;2023-07-31T03:51:50;3.03;;;2.07;;
14381;SDS011;7275;50.328;8.720;2023-07-31T03:54:18;3.67;;;2.00;;
14381;SDS011;7275;50.328;8.720;2023-07-31T03:56:46;3.63;;;2.10;;
14381;SDS011;7275;50.328;8.720;2023-07-31T03:59:15;3.03;;;2.20;;
14381;SDS011;7275;50.328;8.720;2023-07-31T04:01:42;3.30;;;2.10;;
14381;SDS011;7275;50.328;8.720;2023-07-31T04:04:10;3.97;;;2.23;;
14381;SDS011;7275;50.328;8.720;2023-07-31T04:06:38;4.03;;;2.23;;
14381;SDS011;7275;50.328;8.720;2023-07-31T04:09:06;3.73;;;2.10;;
14381;SDS011;7275;50.328;8.720;2023-07-31T04:11:33;3.57;;;2.10;;
14381;SDS011;7275;50.328;8.720;2023-07-31T04:14:01;3.20;;;2.00;;
14381;SDS011;7275;50.328;8.720;2023-07-31T04:16:30;3.27;;;2.10;;
14381;SDS011;7275;50.328;8.720;2023-07-31T04:18:57;4.07;;;2.10;;
14381;SDS011;7275;50.328;8.720;2023-07-31T04:21:25;4.27;;;2.27;;
14381;SDS011;7275;50.328;8.720;2023-07-31T04:23:53;4.27;;;2.20;;
14381;SDS011;7275;50.328;8.720;2023-07-31T04:26:22;3.27;;;2.13;;
14381;SDS011;7275;50.328;8.720;2023-07-31T04:28:49;3.37;;;2.17;;
14381;SDS011;7275;50.328;8.720;2023-07-31T04:31:17;3.10;;;2.10;;
14381;SDS011;7275;50.328;8.720;2023-07-31T04:33:46;4.10;;;2.10;;
14381;SDS011;7275;50.328;8.720;2023-07-31T04:36:14;4.17;;;2.20;;
14381;SDS011;7275;50.328;8.720;2023-07-31T04:38:41;5.60;;;2.30;;
14381;SDS011;7275;50.328;8.720;2023-07-31T04:41:09;4.87;;;2.27;;
14381;SDS011;7275;50.328;8.720;2023-07-31T04:43:37;6.57;;;2.57;;
14381;SDS011;7275;50.328;8.720;2023-07-31T04:46:05;4.17;;;2.20;;
14381;SDS011;7275;50.328;8.720;2023-07-31T04:48:33;4.47;;;2.50;;
14381;SDS011;7275;50.328;8.720;2023-07-31T04:51:02;4.47;;;2.10;;
14381;SDS011;7275;50.328;8.720;2023-07-31T04:53:29;2.90;;;1.93;;
14381;SDS011;7275;50.328;8.720;2023-07-31T04:55:57;4.97;;;2.00;;
14381;SDS011;7275;50.328;8.720;2023-07-31T04:58:24;4.90;;;2.40;;
14381;SDS011;7275;50.328;8.720;2023-07-31T05:00:52;7.77;;;2.20;;
14381;SDS011;7275;50.328;8.720;2023-07-31T05:03:20;5.13;;;1.90;;
14381;SDS011;7275;50.328;8.720;2023-07-31T05:05:48;3.93;;;2.10;;
14381;SDS011;7275;50.328;8.720;2023-07-31T05:08:17;7.60;;;2.13;;
14381;SDS011;7275;50.328;8.720;2023-07-31T05:10:44;4.40;;;2.20;;
14381;SDS011;7275;50.328;8.720;2023-07-31T05:13:12;3.83;;;2.30;;
14381;SDS011;7275;50.328;8.720;2023-07-31T05:15:40;4.93;;;2.23;;
14381;SDS011;7275;50.328;8.720;2023-07-31T05:18:08;5.07;;;2.43;;
14381;SDS011;7275;50.328;8.720;2023-07-31T05:20:35;5.37;;;2.50;;
14381;SDS011;7275;50.328;8.720;2023-07-31T05:23:03;4.77;;;2.57;;
14381;SDS011;7275;50.328;8.720;2023-07-31T05:25:32;4.47;;;2.53;;
14381;SDS011;7275;50.328;8.720;2023-07-31T05:28:00;7.90;;;2.80;;
14381;SDS011;7275;50.328;8.720;2023-07-31T05:30:29;6.60;;;2.53;;
14381;SDS011;7275;50.328;8.720;2023-07-31T05:32:57;5.90;;;2.67;;
14381;SDS011;7275;50.328;8.720;2023-07-31T05:35:24;5.33;;;2.60;;
14381;SDS011;7275;50.328;8.720;2023-07-31T05:37:52;5.13;;;2.43;;
14381;SDS011;7275;50.328;8.720;2023-07-31T05:40:20;6.07;;;2.57;;
14381;SDS011;7275;50.328;8.720;2023-07-31T05:42:49;5.03;;;2.50;;
14381;SDS011;7275;50.328;8.720;2023-07-31T05:45:16;5.17;;;2.80;;
14381;SDS011;7275;50.328;8.720;2023-07-31T05:47:44;3.60;;;2.43;;
14381;SDS011;7275;50.328;8.720;2023-07-31T05:50:12;4.53;;;2.60;;
14381;SDS011;7275;50.328;8.720;2023-07-31T05:52:40;5.80;;;2.60;;
14381;SDS011;7275;50.328;8.720;2023-07-31T05:55:08;5.27;;;2.80;;
14381;SDS011;7275;50.328;8.720;2023-07-31T05:57:36;5.90;;;2.57;;
14381;SDS011;7275;50.328;8.720;2023-07-31T06:00:05;6.17;;;2.57;;
14381;SDS011;7275;50.328;8.720;2023-07-31T06:02:34;5.67;;;2.70;;
14381;SDS011;7275;50.328;8.720;2023-07-31T06:05:03;4.93;;;2.63;;
14381;SDS011;7275;50.328;8.720;2023-07-31T06:07:32;6.57;;;2.70;;
14381;SDS011;7275;50.328;8.720;2023-07-31T06:10:00;6.43;;;2.93;;
14381;SDS011;7275;50.328;8.720;2023-07-31T06:12:31;4.00;;;2.67;;
14381;SDS011;7275;50.328;8.720;2023-07-31T06:14:59;3.93;;;2.33;;
14381;SDS011;7275;50.328;8.720;2023-07-31T06:17:28;5.60;;;3.10;;
14381;SDS011;7275;50.328;8.720;2023-07-31T06:19:56;3.93;;;2.50;;
14381;SDS011;7275;50.328;8.720;2023-07-31T06:22:24;4.53;;;2.40;;
14381;SDS011;7275;50.328;8.720;2023-07-31T06:24:52;5.10;;;2.73;;
14381;SDS011;7275;50.328;8.720;2023-07-31T06:27:19;4.90;;;2.80;;
14381;SDS011;7275;50.328;8.720;2023-07-31T06:29:47;7.30;;;2.60;;
14381;SDS011;7275;50.328;8.720;2023-07-31T06:32:15;4.47;;;2.67;;
14381;SDS011;7275;50.328;8.720;2023-07-31T06:34:44;3.73;;;2.40;;
14381;SDS011;7275;50.328;8.720;2023-07-31T06:37:11;4.60;;;2.30;;
14381;SDS011;7275;50.328;8.720;2023-07-31T06:39:39;4.67;;;2.80;;
14381;SDS011;7275;50.328;8.720;2023-07-31T06:42:07;6.43;;;3.00;;
14381;SDS011;7275;50.328;8.720;2023-07-31T06:44:34;5.13;;;2.60;;
14381;SDS011;7275;50.328;8.720;2023-07-31T06:47:02;3.60;;;2.57;;
14381;SDS011;7275;50.328;8.720;2023-07-31T06:49:30;4.07;;;2.80;;
14381;SDS011;7275;50.328;8.720;2023-07-31T06:51:59;5.30;;;2.87;;
14381;SDS011;7275;50.328;8.720;2023-07-31T06:54:28;4.97;;;2.97;;
14381;SDS011;7275;50.328;8.720;2023-07-31T06:56:56;6.03;;;2.67;;
14381;SDS011;7275;50.328;8.720;2023-07-31T06:59:24;4.67;;;3.00;;
14381;SDS011;7275;50.328;8.720;2023-07-31T07:01:51;5.50;;;2.60;;
14381;SDS011;7275;50.328;8.720;2023-07-31T07:04:19;6.60;;;3.20;;
14381;SDS011;7275;50.328;8.720;2023-07-31T07:06:46;5.57;;;2.70;;
14381;SDS011;7275;50.328;8.720;2023-07-31T07:09:15;6.63;;;2.90;;
14381;SDS011;7275;50.328;8.720;2023-07-31T07:11:44;5.53;;;2.90;;
14381;SDS011;7275;50.328;8.720;2023-07-31T07:14:11;5.67;;;2.93;;
14381;SDS011;7275;50.328;8.720;2023-07-31T07:16:39;4.10;;;2.87;;
14381;SDS011;7275;50.328;8.720;2023-07-31T07:19:08;5.77;;;2.70;;
14381;SDS011;7275;50.328;8.720;2023-07-31T07:21:35;4.33;;;2.63;;
14381;SDS011;7275;50.328;8.720;2023-07-31T07:24:03;5.93;;;2.90;;
14381;SDS011;7275;50.328;8.720;2023-07-31T07:26:33;6.00;;;2.60;;
14381;SDS011;7275;50.328;8.720;2023-07-31T07:29:00;5.37;;;2.60;;
14381;SDS011;7275;50.328;8.720;2023-07-31T07:31:28;6.40;;;2.63;;
14381;SDS011;7275;50.328;8.720;2023-07-31T07:33:56;6.87;;;3.00;;
14381;SDS011;7275;50.328;8.720;2023-07-31T07:36:23;4.83;;;2.83;;
14381;SDS011;7275;50.328;8.720;2023-07-31T07:38:51;5.50;;;3.07;;
14381;SDS011;7275;50.328;8.720;2023-07-31T07:41:19;5.57;;;2.97;;
14381;SDS011;7275;50.328;8.720;2023-07-31T07:43:47;7.47;;;2.87;;
14381;SDS011;7275;50.328;8.720;2023-07-31T07:46:15;5.20;;;2.70;;
14381;SDS011;7275;50.328;8.720;2023-07-31T07:48:43;5.07;;;2.67;;
14381;SDS011;7275;50.328;8.720;2023-07-31T07:51:10;5.30;;;3.13;;
14381;SDS011;7275;50.328;8.720;2023-07-31T07:53:39;4.50;;;2.70;;
14381;SDS011;7275;50.328;8.720;2023-07-31T07:56:07;7.13;;;3.13;;
14381;SDS011;7275;50.328;8.720;2023-07-31T07:58:34;5.90;;;3.03;;
14381;SDS011;7275;50.328;8.720;2023-07-31T08:01:05;7.73;;;3.03;;
14381;SDS011;7275;50.328;8.720;2023-07-31T08:03:33;4.97;;;2.67;;
14381;SDS011;7275;50.328;8.720;2023-07-31T08:06:01;4.87;;;2.63;;
14381;SDS011;7275;50.328;8.720;2023-07-31T08:08:29;4.97;;;2.83;;
14381;SDS011;7275;50.328;8.720;2023-07-31T08:10:58;6.53;;;3.00;;
14381;SDS011;7275;50.328;8.720;2023-07-31T08:13:25;5.50;;;2.80;;
14381;SDS011;7275;50.328;8.720;2023-07-31T08:15:53;5.00;;;2.80;;
14381;SDS011;7275;50.328;8.720;2023-07-31T08:18:22;6.93;;;3.10;;
14381;SDS011;7275;50.328;8.720;2023-07-31T08:20:50;4.93;;;2.60;;
14381;SDS011;7275;50.328;8.720;2023-07-31T08:23:17;4.30;;;2.80;;
14381;SDS011;7275;50.328;8.720;2023-07-31T08:25:45;4.87;;;2.50;;
14381;SDS011;7275;50.328;8.720;2023-07-31T08:28:13;6.63;;;2.83;;
14381;SDS011;7275;50.328;8.720;2023-07-31T08:30:41;5.83;;;3.00;;
14381;SDS011;7275;50.328;8.720;2023-07-31T08:33:09;7.20;;;2.70;;
14381;SDS011;7275;50.328;8.720;2023-07-31T08:35:38;5.37;;;2.60;;
14381;SDS011;7275;50.328;8.720;2023-07-31T08:38:06;5.27;;;2.80;;
14381;SDS011;7275;50.328;8.720;2023-07-31T08:40:35;5.45;;;2.80;;
14381;SDS011;7275;50.328;8.720;2023-07-31T08:43:03;4.90;;;2.92;;
14381;SDS011;7275;50.328;8.720;2023-07-31T08:45:31;5.95;;;2.70;;
14381;SDS011;7275;50.328;8.720;2023-07-31T08:48:00;5.40;;;2.70;;
14381;SDS011;7275;50.328;8.720;2023-07-31T08:50:28;6.23;;;2.70;;
14381;SDS011;7275;50.328;8.720;2023-07-31T08:52:56;4.40;;;2.50;;
14381;SDS011;7275;50.328;8.720;2023-07-31T08:55:24;5.80;;;3.00;;
14381;SDS011;7275;50.328;8.720;2023-07-31T08:57:52;5.13;;;2.75;;
14381;SDS011;7275;50.328;8.720;2023-07-31T09:00:20;5.07;;;2.75;;
14381;SDS011;7275;50.328;8.720;2023-07-31T09:02:51;5.23;;;2.70;;
14381;SDS011;7275;50.328;8.720;2023-07-31T09:05:23;4.60;;;2.43;;
14381;SDS011;7275;50.328;8.720;2023-07-31T09:07:53;5.70;;;2.70;;
14381;SDS011;7275;50.328;8.720;2023-07-31T09:10:24;5.93;;;2.83;;
14381;SDS011;7275;50.328;8.720;2023-07-31T09:12:52;5.13;;;2.90;;
14381;SDS011;7275;50.328;8.720;2023-07-31T09:15:19;5.60;;;3.10;;
14381;SDS011;7275;50.328;8.720;2023-07-31T09:18:03;4.33;;;2.60;;
14381;SDS011;7275;50.328;8.720;2023-07-31T09:20:32;8.83;;;3.03;;
14381;SDS011;7275;50.328;8.720;2023-07-31T09:23:06;5.30;;;2.53;;
14381;SDS011;7275;50.328;8.720;2023-07-31T09:25:35;5.20;;;3.10;;
14381;SDS011;7275;50.328;8.720;2023-07-31T09:28:04;5.23;;;2.70;;
14381;SDS011;7275;50.328;8.720;2023-07-31T09:30:44;4.63;;;2.50;;
14381;SDS011;7275;50.328;8.720;2023-07-31T09:33:14;4.30;;;2.90;;
14381;SDS011;7275;50.328;8.720;2023-07-31T09:35:42;5.23;;;2.70;;
14381;SDS011;7275;50.328;8.720;2023-07-31T09:38:50;4.27;;;2.70;;
14381;SDS011;7275;50.328;8.720;2023-07-31T09:41:18;7.97;;;2.90;;
14381;SDS011;7275;50.328;8.720;2023-07-31T09:43:52;6.20;;;2.60;;
14381;SDS011;7275;50.328;8.720;2023-07-31T09:46:21;4.60;;;2.60;;
14381;SDS011;7275;50.328;8.720;2023-07-31T09:48:49;4.40;;;2.40;;
14381;SDS011;7275;50.328;8.720;2023-07-31T09:51:17;4.90;;;2.77;;
14381;SDS011;7275;50.328;8.720;2023-07-31T09:53:54;4.10;;;2.70;;
14381;SDS011;7275;50.328;8.720;2023-07-31T09:56:22;5.40;;;2.73;;
14381;SDS011;7275;50.328;8.720;2023-07-31T09:58:50;6.30;;;2.40;;
14381;SDS011;7275;50.328;8.720;2023-07-31T10:01:18;4.20;;;2.53;;
14381;SDS011;7275;50.328;8.720;2023-07-31T10:03:46;4.70;;;2.90;;
14381;SDS011;7275;50.328;8.720;2023-07-31T10:06:14;5.00;;;2.37;;
14381;SDS011;7275;50.328;8.720;2023-07-31T10:08:45;6.03;;;2.78;;
14381;SDS011;7275;50.328;8.720;2023-07-31T10:11:16;4.28;;;2.55;;
14381;SDS011;7275;50.328;8.720;2023-07-31T10:13:44;5.72;;;2.85;;
14381;SDS011;7275;50.328;8.720;2023-07-31T10:16:13;5.65;;;3.03;;
14381;SDS011;7275;50.328;8.720;2023-07-31T10:18:43;6.70;;;2.97;;
14381;SDS011;7275;50.328;8.720;2023-07-31T10:21:11;3.75;;;2.47;;
14381;SDS011;7275;50.328;8.720;2023-07-31T10:23:39;5.10;;;2.53;;
14381;SDS011;7275;50.328;8.720;2023-07-31T10:26:07;5.57;;;2.85;;
14381;SDS011;7275;50.328;8.720;2023-07-31T10:28:36;6.05;;;2.67;;
14381;SDS011;7275;50.328;8.720;2023-07-31T10:31:05;5.00;;;2.67;;
14381;SDS011;7275;50.328;8.720;2023-07-31T10:33:33;7.25;;;2.47;;
14381;SDS011;7275;50.328;8.720;2023-07-31T10:36:14;5.35;;;3.05;;
14381;SDS011;7275;50.328;8.720;2023-07-31T10:38:44;5.47;;;2.40;;
14381;SDS011;7275;50.328;8.720;2023-07-31T10:41:12;4.25;;;2.53;;
14381;SDS011;7275;50.328;8.720;2023-07-31T10:43:41;3.92;;;2.50;;
14381;SDS011;7275;50.328;8.720;2023-07-31T10:46:09;6.00;;;2.65;;
14381;SDS011;7275;50.328;8.720;2023-07-31T10:48:39;4.90;;;2.78;;
14381;SDS011;7275;50.328;8.720;2023-07-31T10:51:08;5.43;;;3.00;;
14381;SDS011;7275;50.328;8.720;2023-07-31T10:53:38;3.97;;;2.75;;
14381;SDS011;7275;50.328;8.720;2023-07-31T10:56:08;4.97;;;2.55;;
14381;SDS011;7275;50.328;8.720;2023-07-31T10:58:38;5.47;;;2.90;;
14381;SDS011;7275;50.328;8.720;2023-07-31T11:01:10;4.55;;;2.67;;
14381;SDS011;7275;50.328;8.720;2023-07-31T11:03:41;4.47;;;2.67;;
14381;SDS011;7275;50.328;8.720;2023-07-31T11:06:10;5.53;;;2.78;;
14381;SDS011;7275;50.328;8.720;2023-07-31T11:08:41;3.38;;;2.42;;
14381;SDS011;7275;50.328;8.720;2023-07-31T11:11:11;5.10;;;2.67;;
14381;SDS011;7275;50.328;8.720;2023-07-31T11:13:43;3.25;;;2.47;;
14381;SDS011;7275;50.328;8.720;2023-07-31T11:16:11;4.95;;;2.70;;
14381;SDS011;7275;50.328;8.720;2023-07-31T11:18:40;4.97;;;2.88;;
14381;SDS011;7275;50.328;8.720;2023-07-31T11:21:08;4.45;;;2.60;;
14381;SDS011;7275;50.328;8.720;2023-07-31T11:23:39;5.88;;;2.60;;
14381;SDS011;7275;50.328;8.720;2023-07-31T11:26:07;4.43;;;2.65;;
14381;SDS011;7275;50.328;8.720;2023-07-31T11:28:34;4.10;;;2.50;;
14381;SDS011;7275;50.328;8.720;2023-07-31T11:31:08;4.28;;;2.40;;
14381;SDS011;7275;50.328;8.720;2023-07-31T11:33:37;4.85;;;2.70;;
14381;SDS011;7275;50.328;8.720;2023-07-31T11:36:04;5.57;;;2.50;;
14381;SDS011;7275;50.328;8.720;2023-07-31T11:38:33;5.32;;;2.90;;
14381;SDS011;7275;50.328;8.720;2023-07-31T11:41:02;3.80;;;2.50;;
14381;SDS011;7275;50.328;8.720;2023-07-31T11:43:31;4.43;;;2.70;;
14381;SDS011;7275;50.328;8.720;2023-07-31T11:45:59;4.30;;;2.55;;
14381;SDS011;7275;50.328;8.720;2023-07-31T11:48:31;6.43;;;2.75;;
14381;SDS011;7275;50.328;8.720;2023-07-31T11:51:02;3.72;;;2.42;;
14381;SDS011;7275;50.328;8.720;2023-07-31T11:53:31;3.97;;;2.63;;
14381;SDS011;7275;50.328;8.720;2023-07-31T11:56:03;4.30;;;2.70;;
14381;SDS011;7275;50.328;8.720;2023-07-31T11:58:33;3.85;;;2.67;;
14381;SDS011;7275;50.328;8.720;2023-07-31T12:01:02;3.95;;;2.70;;
14381;SDS011;7275;50.328;8.720;2023-07-31T12:03:31;4.72;;;2.90;;
14381;SDS011;7275;50.328;8.720;2023-07-31T12:05:59;4.00;;;2.70;;
14381;SDS011;7275;50.328;8.720;2023-07-31T12:08:27;5.18;;;2.60;;
14381;SDS011;7275;50.328;8.720;2023-07-31T12:11:01;4.32;;;2.80;;
14381;SDS011;7275;50.328;8.720;2023-07-31T12:13:30;4.45;;;2.85;;
14381;SDS011;7275;50.328;8.720;2023-07-31T12:16:00;3.75;;;2.20;;
14381;SDS011;7275;50.328;8.720;2023-07-31T12:18:30;3.45;;;2.40;;
14381;SDS011;7275;50.328;8.720;2023-07-31T12:21:04;3.85;;;2.75;;
14381;SDS011;7275;50.328;8.720;2023-07-31T12:23:33;3.47;;;2.80;;
14381;SDS011;7275;50.328;8.720;2023-07-31T12:26:02;3.47;;;2.30;;
14381;SDS011;7275;50.328;8.720;2023-07-31T12:28:34;4.80;;;2.30;;
14381;SDS011;7275;50.328;8.720;2023-07-31T12:31:03;5.13;;;2.55;;
14381;SDS011;7275;50.328;8.720;2023-07-31T12:33:32;3.50;;;2.40;;
14381;SDS011;7275;50.328;8.720;2023-07-31T12:36:02;4.95;;;3.00;;
14381;SDS011;7275;50.328;8.720;2023-07-31T12:38:31;4.68;;;2.60;;
14381;SDS011;7275;50.328;8.720;2023-07-31T12:40:59;5.03;;;2.50;;
14381;SDS011;7275;50.328;8.720;2023-07-31T12:43:27;4.93;;;2.78;;
14381;SDS011;7275;50.328;8.720;2023-07-31T12:45:55;5.22;;;2.70;;
14381;SDS011;7275;50.328;8.720;2023-07-31T12:48:23;4.85;;;2.60;;
14381;SDS011;7275;50.328;8.720;2023-07-31T12:50:50;4.20;;;2.60;;
14381;SDS011;7275;50.328;8.720;2023-07-31T12:53:20;5.07;;;2.80;;
14381;SDS011;7275;50.328;8.720;2023-07-31T12:55:47;5.55;;;2.83;;
14381;SDS011;7275;50.328;8.720;2023-07-31T12:58:15;4.30;;;2.50;;
14381;SDS011;7275;50.328;8.720;2023-07-31T13:00:43;5.15;;;2.63;;
14381;SDS011;7275;50.328;8.720;2023-07-31T13:03:10;3.95;;;2.63;;
14381;SDS011;7275;50.328;8.720;2023-07-31T13:05:38;3.20;;;2.53;;
14381;SDS011;7275;50.328;8.720;2023-07-31T13:08:06;4.82;;;2.95;;
14381;SDS011;7275;50.328;8.720;2023-07-31T13:10:35;4.82;;;2.50;;
14381;SDS011;7275;50.328;8.720;2023-07-31T13:13:03;4.35;;;2.65;;
14381;SDS011;7275;50.328;8.720;2023-07-31T13:15:30;3.40;;;2.53;;
14381;SDS011;7275;50.328;8.720;2023-07-31T13:17:58;3.92;;;2.50;;
14381;SDS011;7275;50.328;8.720;2023-07-31T13:20:26;4.03;;;2.58;;
14381;SDS011;7275;50.328;8.720;2023-07-31T13:22:54;2.60;;;2.25;;
14381;SDS011;7275;50.328;8.720;2023-07-31T13:25:21;5.05;;;2.88;;
14381;SDS011;7275;50.328;8.720;2023-07-31T13:27:51;3.13;;;2.42;;
14381;SDS011;7275;50.328;8.720;2023-07-31T13:30:19;4.95;;;2.72;;
14381;SDS011;7275;50.328;8.720;2023-07-31T13:32:47;6.55;;;2.50;;
14381;SDS011;7275;50.328;8.720;2023-07-31T13:35:14;3.17;;;2.38;;
14381;SDS011;7275;50.328;8.720;2023-07-31T13:37:42;3.42;;;2.42;;
14381;SDS011;7275;50.328;8.720;2023-07-31T13:40:10;5.18;;;2.55;;
14381;SDS011;7275;50.328;8.720;2023-07-31T13:42:38;3.42;;;2.72;;
14381;SDS011;7275;50.328;8.720;2023-07-31T13:45:07;6.70;;;2.45;;
14381;SDS011;7275;50.328;8.720;2023-07-31T13:47:35;5.38;;;2.67;;
14381;SDS011;7275;50.328;8.720;2023-07-31T13:50:04;3.90;;;2.45;;
14381;SDS011;7275;50.328;8.720;2023-07-31T13:52:32;3.40;;;2.40;;
14381;SDS011;7275;50.328;8.720;2023-07-31T13:55:00;4.22;;;2.50;;
14381;SDS011;7275;50.328;8.720;2023-07-31T13:57:27;3.45;;;2.30;;
14381;SDS011;7275;50.328;8.720;2023-07-31T13:59:55;3.22;;;2.50;;
14381;SDS011;7275;50.328;8.720;2023-07-31T14:02:24;4.22;;;2.70;;
14381;SDS011;7275;50.328;8.720;2023-07-31T14:04:52;2.90;;;2.25;;
14381;SDS011;7275;50.328;8.720;2023-07-31T14:07:19;3.40;;;2.47;;
14381;SDS011;7275;50.328;8.720;2023-07-31T14:09:47;2.78;;;2.20;;
14381;SDS011;7275;50.328;8.720;2023-07-31T14:12:15;4.72;;;2.40;;
14381;SDS011;7275;50.328;8.720;2023-07-31T14:15:02;5.32;;;2.45;;
14381;SDS011;7275;50.328;8.720;2023-07-31T14:17:32;3.10;;;2.40;;
14381;SDS011;7275;50.328;8.720;2023-07-31T14:20:00;3.90;;;2.88;;
14381;SDS011;7275;50.328;8.720;2023-07-31T14:22:28;3.92;;;2.40;;
14381;SDS011;7275;50.328;8.720;2023-07-31T14:24:56;4.35;;;2.60;;
14381;SDS011;7275;50.328;8.720;2023-07-31T14:27:23;3.50;;;2.40;;
14381;SDS011;7275;50.328;8.720;2023-07-31T14:29:51;3.17;;;2.35;;
14381;SDS011;7275;50.328;8.720;2023-07-31T14:32:20;2.95;;;2.38;;
14381;SDS011;7275;50.328;8.720;2023-07-31T14:34:51;3.70;;;2.30;;
14381;SDS011;7275;50.328;8.720;2023-07-31T14:37:18;3.92;;;2.13;;
14381;SDS011;7275;50.328;8.720;2023-07-31T14:39:46;5.13;;;2.28;;
14381;SDS011;7275;50.328;8.720;2023-07-31T14:42:13;2.50;;;2.08;;
14381;SDS011;7275;50.328;8.720;2023-07-31T14:44:42;2.75;;;2.17;;
14381;SDS011;7275;50.328;8.720;2023-07-31T14:47:10;4.05;;;2.30;;
14381;SDS011;7275;50.328;8.720;2023-07-31T14:49:37;3.13;;;2.05;;
14381;SDS011;7275;50.328;8.720;2023-07-31T14:52:07;3.53;;;2.30;;
14381;SDS011;7275;50.328;8.720;2023-07-31T14:54:35;3.22;;;2.40;;
14381;SDS011;7275;50.328;8.720;2023-07-31T14:57:02;4.13;;;2.35;;
14381;SDS011;7275;50.328;8.720;2023-07-31T14:59:30;3.83;;;2.00;;
14381;SDS011;7275;50.328;8.720;2023-07-31T15:01:58;3.22;;;2.30;;
14381;SDS011;7275;50.328;8.720;2023-07-31T15:04:26;3.55;;;2.13;;
14381;SDS011;7275;50.328;8.720;2023-07-31T15:06:53;4.43;;;2.10;;
14381;SDS011;7275;50.328;8.720;2023-07-31T15:09:22;3.58;;;2.05;;
14381;SDS011;7275;50.328;8.720;2023-07-31T15:11:50;3.22;;;2.00;;